sensor_id;sensor_type;location;lat;lon;timestamp;P1;durP1;ratioP1;P2;durP2;ratioP2
48995;SDS011;34806;53.882;10.656;2022-08-01T08:48:37;10.02;;;4.15;;
48995;SDS011;34806;53.882;10.656;2022-08-01T08:51:06;11.05;;;4.40;;
48995;SDS011;34806;53.882;10.656;2022-08-01T08:53:37;6.82;;;4.05;;
48995;SDS011;34806;53.882;10.656;2022-08-01T08:56:09;6.10;;;3.65;;
48995;SDS011;34806;53.882;10.656;2022-08-01T08:58:39;6.22;;;3.47;;
48995;SDS011;34806;53.882;10.656;2022-08-01T09:01:08;5.32;;;3.45;;
48995;SDS011;34806;53.882;10.656;2022-08-01T09:03:38;7.38;;;3.20;;
48995;SDS011;34806;53.882;10.656;2022-08-01T09:06:06;3.38;;;3.03;;
48995;SDS011;34806;53.882;10.656;2022-08-01T09:08:35;5.57;;;3.17;;
48995;SDS011;34806;53.882;10.656;2022-08-01T09:11:04;5.07;;;2.90;;
48995;SDS011;34806;53.882;10.656;2022-08-01T09:13:31;3.38;;;3.00;;
48995;SDS011;34806;53.882;10.656;2022-08-01T09:15:59;5.13;;;2.88;;
48995;SDS011;34806;53.882;10.656;2022-08-01T09:18:29;6.07;;;3.25;;
48995;SDS011;34806;53.882;10.656;2022-08-01T09:21:08;8.73;;;3.13;;
48995;SDS011;34806;53.882;10.656;2022-08-01T09:23:38;8.40;;;3.22;;
48995;SDS011;34806;53.882;10.656;2022-08-01T09:26:20;9.20;;;3.58;;
48995;SDS011;34806;53.882;10.656;2022-08-01T09:28:49;6.18;;;3.38;;
48995;SDS011;34806;53.882;10.656;2022-08-01T09:31:18;6.15;;;2.97;;
48995;SDS011;34806;53.882;10.656;2022-08-01T09:33:47;6.15;;;3.65;;
48995;SDS011;34806;53.882;10.656;2022-08-01T09:36:19;3.72;;;3.28;;
48995;SDS011;34806;53.882;10.656;2022-08-01T09:38:47;7.20;;;3.40;;
48995;SDS011;34806;53.882;10.656;2022-08-01T09:41:16;6.28;;;3.30;;
48995;SDS011;34806;53.882;10.656;2022-08-01T09:43:48;8.10;;;3.70;;
48995;SDS011;34806;53.882;10.656;2022-08-01T09:46:19;9.02;;;3.92;;
48995;SDS011;34806;53.882;10.656;2022-08-01T09:48:56;6.57;;;4.07;;
48995;SDS011;34806;53.882;10.656;2022-08-01T09:51:31;7.53;;;3.75;;
48995;SDS011;34806;53.882;10.656;2022-08-01T09:54:27;8.48;;;3.80;;
48995;SDS011;34806;53.882;10.656;2022-08-01T09:57:10;6.28;;;3.65;;
48995;SDS011;34806;53.882;10.656;2022-08-01T09:59:41;5.15;;;3.70;;
48995;SDS011;34806;53.882;10.656;2022-08-01T10:02:29;5.75;;;3.50;;
48995;SDS011;34806;53.882;10.656;2022-08-01T10:04:59;5.95;;;3.45;;
48995;SDS011;34806;53.882;10.656;2022-08-01T10:07:34;6.22;;;3.25;;
48995;SDS011;34806;53.882;10.656;2022-08-01T10:10:10;4.20;;;3.10;;
48995;SDS011;34806;53.882;10.656;2022-08-01T10:12:40;6.80;;;3.40;;
48995;SDS011;34806;53.882;10.656;2022-08-01T10:15:10;6.72;;;3.13;;
48995;SDS011;34806;53.882;10.656;2022-08-01T10:17:44;6.40;;;2.70;;
48995;SDS011;34806;53.882;10.656;2022-08-01T10:20:20;4.30;;;3.00;;
48995;SDS011;34806;53.882;10.656;2022-08-01T10:22:59;5.18;;;2.83;;
48995;SDS011;34806;53.882;10.656;2022-08-01T10:25:33;6.37;;;2.90;;
48995;SDS011;34806;53.882;10.656;2022-08-01T10:28:10;5.35;;;2.97;;
48995;SDS011;34806;53.882;10.656;2022-08-01T10:30:46;3.83;;;2.67;;
48995;SDS011;34806;53.882;10.656;2022-08-01T10:33:15;5.43;;;3.00;;
48995;SDS011;34806;53.882;10.656;2022-08-01T10:36:04;6.50;;;3.00;;
48995;SDS011;34806;53.882;10.656;2022-08-01T10:38:35;8.45;;;3.92;;
48995;SDS011;34806;53.882;10.656;2022-08-01T10:41:04;9.43;;;3.13;;
48995;SDS011;34806;53.882;10.656;2022-08-01T10:43:34;8.50;;;2.85;;
48995;SDS011;34806;53.882;10.656;2022-08-01T10:46:02;5.60;;;2.97;;
48995;SDS011;34806;53.882;10.656;2022-08-01T10:48:33;7.93;;;3.40;;
48995;SDS011;34806;53.882;10.656;2022-08-01T10:51:10;6.40;;;2.88;;
48995;SDS011;34806;53.882;10.656;2022-08-01T10:53:50;8.38;;;3.17;;
48995;SDS011;34806;53.882;10.656;2022-08-01T10:56:21;8.27;;;2.83;;
48995;SDS011;34806;53.882;10.656;2022-08-01T10:58:55;6.40;;;3.08;;
48995;SDS011;34806;53.882;10.656;2022-08-01T11:01:37;12.10;;;3.20;;
48995;SDS011;34806;53.882;10.656;2022-08-01T11:04:11;6.30;;;3.03;;
48995;SDS011;34806;53.882;10.656;2022-08-01T11:06:48;8.85;;;3.10;;
48995;SDS011;34806;53.882;10.656;2022-08-01T11:09:29;9.05;;;2.70;;
48995;SDS011;34806;53.882;10.656;2022-08-01T11:12:06;7.50;;;2.70;;
48995;SDS011;34806;53.882;10.656;2022-08-01T11:20:30;8.30;;;2.70;;
48995;SDS011;34806;53.882;10.656;2022-08-01T11:26:09;6.45;;;2.33;;
48995;SDS011;34806;53.882;10.656;2022-08-01T11:29:10;6.90;;;2.60;;
48995;SDS011;34806;53.882;10.656;2022-08-01T11:31:47;7.65;;;2.70;;
48995;SDS011;34806;53.882;10.656;2022-08-01T11:34:15;7.85;;;2.63;;
48995;SDS011;34806;53.882;10.656;2022-08-01T11:36:43;6.20;;;2.50;;
48995;SDS011;34806;53.882;10.656;2022-08-01T11:39:28;4.28;;;2.08;;
48995;SDS011;34806;53.882;10.656;2022-08-01T11:42:18;7.25;;;2.55;;
48995;SDS011;34806;53.882;10.656;2022-08-01T11:44:48;4.00;;;2.60;;
48995;SDS011;34806;53.882;10.656;2022-08-01T11:47:17;8.57;;;2.47;;
48995;SDS011;34806;53.882;10.656;2022-08-01T11:49:47;5.88;;;2.85;;
48995;SDS011;34806;53.882;10.656;2022-08-01T11:52:24;5.72;;;2.42;;
48995;SDS011;34806;53.882;10.656;2022-08-01T11:54:54;4.30;;;2.40;;
48995;SDS011;34806;53.882;10.656;2022-08-01T11:57:25;4.70;;;2.22;;
48995;SDS011;34806;53.882;10.656;2022-08-01T12:00:03;7.03;;;2.40;;
48995;SDS011;34806;53.882;10.656;2022-08-01T12:02:34;5.07;;;2.60;;
48995;SDS011;34806;53.882;10.656;2022-08-01T12:05:04;7.80;;;2.30;;
48995;SDS011;34806;53.882;10.656;2022-08-01T12:07:38;4.35;;;2.05;;
48995;SDS011;34806;53.882;10.656;2022-08-01T12:10:08;6.68;;;2.58;;
48995;SDS011;34806;53.882;10.656;2022-08-01T12:12:44;4.65;;;2.03;;
48995;SDS011;34806;53.882;10.656;2022-08-01T12:15:14;5.90;;;1.90;;
48995;SDS011;34806;53.882;10.656;2022-08-01T12:17:43;5.03;;;2.00;;
48995;SDS011;34806;53.882;10.656;2022-08-01T12:20:24;4.97;;;1.95;;
48995;SDS011;34806;53.882;10.656;2022-08-01T12:22:56;10.00;;;2.45;;
48995;SDS011;34806;53.882;10.656;2022-08-01T12:25:25;6.20;;;2.50;;
48995;SDS011;34806;53.882;10.656;2022-08-01T12:27:55;6.40;;;2.20;;
48995;SDS011;34806;53.882;10.656;2022-08-01T12:30:27;9.98;;;2.42;;
48995;SDS011;34806;53.882;10.656;2022-08-01T12:32:57;6.57;;;2.33;;
48995;SDS011;34806;53.882;10.656;2022-08-01T12:35:26;7.20;;;2.45;;
48995;SDS011;34806;53.882;10.656;2022-08-01T12:37:56;5.47;;;2.30;;
48995;SDS011;34806;53.882;10.656;2022-08-01T12:40:27;8.88;;;1.92;;
48995;SDS011;34806;53.882;10.656;2022-08-01T12:42:59;5.82;;;1.88;;
48995;SDS011;34806;53.882;10.656;2022-08-01T12:45:30;7.30;;;2.22;;
48995;SDS011;34806;53.882;10.656;2022-08-01T12:48:01;6.75;;;2.08;;
48995;SDS011;34806;53.882;10.656;2022-08-01T12:50:35;5.18;;;1.80;;
48995;SDS011;34806;53.882;10.656;2022-08-01T12:53:05;8.05;;;2.30;;
48995;SDS011;34806;53.882;10.656;2022-08-01T12:55:43;5.38;;;2.10;;
48995;SDS011;34806;53.882;10.656;2022-08-01T12:58:31;6.32;;;2.10;;
48995;SDS011;34806;53.882;10.656;2022-08-01T13:01:04;4.68;;;2.00;;
48995;SDS011;34806;53.882;10.656;2022-08-01T13:03:34;6.53;;;2.03;;
48995;SDS011;34806;53.882;10.656;2022-08-01T13:06:09;7.13;;;2.38;;
48995;SDS011;34806;53.882;10.656;2022-08-01T13:08:41;6.05;;;1.90;;
48995;SDS011;34806;53.882;10.656;2022-08-01T13:11:09;9.63;;;2.20;;
48995;SDS011;34806;53.882;10.656;2022-08-01T13:13:42;5.70;;;2.08;;
48995;SDS011;34806;53.882;10.656;2022-08-01T13:16:13;6.35;;;1.92;;
48995;SDS011;34806;53.882;10.656;2022-08-01T13:19:02;7.47;;;2.35;;
48995;SDS011;34806;53.882;10.656;2022-08-01T13:21:31;5.75;;;1.83;;
48995;SDS011;34806;53.882;10.656;2022-08-01T13:24:22;5.78;;;2.13;;
48995;SDS011;34806;53.882;10.656;2022-08-01T13:26:52;6.30;;;2.03;;
48995;SDS011;34806;53.882;10.656;2022-08-01T13:29:30;6.97;;;2.35;;
48995;SDS011;34806;53.882;10.656;2022-08-01T13:31:59;8.65;;;2.50;;
48995;SDS011;34806;53.882;10.656;2022-08-01T13:35:00;4.13;;;2.05;;
48995;SDS011;34806;53.882;10.656;2022-08-01T13:37:29;6.13;;;2.17;;
48995;SDS011;34806;53.882;10.656;2022-08-01T13:39:57;9.25;;;2.47;;
48995;SDS011;34806;53.882;10.656;2022-08-01T13:42:25;6.47;;;2.15;;
48995;SDS011;34806;53.882;10.656;2022-08-01T13:44:56;6.22;;;1.92;;
48995;SDS011;34806;53.882;10.656;2022-08-01T13:47:25;5.88;;;1.70;;
48995;SDS011;34806;53.882;10.656;2022-08-01T13:49:57;5.93;;;1.95;;
48995;SDS011;34806;53.882;10.656;2022-08-01T13:52:27;7.35;;;2.15;;
48995;SDS011;34806;53.882;10.656;2022-08-01T13:54:55;7.18;;;1.88;;
48995;SDS011;34806;53.882;10.656;2022-08-01T13:57:23;7.20;;;2.38;;
48995;SDS011;34806;53.882;10.656;2022-08-01T14:00:04;7.72;;;2.25;;
48995;SDS011;34806;53.882;10.656;2022-08-01T14:02:34;6.70;;;1.73;;
48995;SDS011;34806;53.882;10.656;2022-08-01T14:05:02;6.15;;;1.90;;
48995;SDS011;34806;53.882;10.656;2022-08-01T14:07:30;8.85;;;1.80;;
48995;SDS011;34806;53.882;10.656;2022-08-01T14:09:58;8.98;;;2.10;;
48995;SDS011;34806;53.882;10.656;2022-08-01T14:12:44;4.75;;;2.03;;
48995;SDS011;34806;53.882;10.656;2022-08-01T14:15:14;5.60;;;1.95;;
48995;SDS011;34806;53.882;10.656;2022-08-01T14:18:02;6.22;;;1.60;;
48995;SDS011;34806;53.882;10.656;2022-08-01T14:20:31;5.65;;;1.92;;
48995;SDS011;34806;53.882;10.656;2022-08-01T14:23:00;6.03;;;1.83;;
48995;SDS011;34806;53.882;10.656;2022-08-01T14:25:28;8.55;;;1.58;;
48995;SDS011;34806;53.882;10.656;2022-08-01T14:28:16;5.82;;;1.60;;
48995;SDS011;34806;53.882;10.656;2022-08-01T14:30:46;3.88;;;2.05;;
48995;SDS011;34806;53.882;10.656;2022-08-01T14:33:14;6.03;;;1.60;;
48995;SDS011;34806;53.882;10.656;2022-08-01T14:35:42;7.10;;;1.83;;
48995;SDS011;34806;53.882;10.656;2022-08-01T14:38:30;5.45;;;1.60;;
48995;SDS011;34806;53.882;10.656;2022-08-01T14:40:59;5.85;;;1.83;;
48995;SDS011;34806;53.882;10.656;2022-08-01T14:43:29;10.85;;;1.73;;
48995;SDS011;34806;53.882;10.656;2022-08-01T14:46:00;4.68;;;1.48;;
48995;SDS011;34806;53.882;10.656;2022-08-01T14:48:30;5.25;;;1.92;;
48995;SDS011;34806;53.882;10.656;2022-08-01T14:50:58;5.82;;;1.90;;
48995;SDS011;34806;53.882;10.656;2022-08-01T14:53:29;3.70;;;1.55;;
48995;SDS011;34806;53.882;10.656;2022-08-01T14:56:01;3.60;;;1.70;;
48995;SDS011;34806;53.882;10.656;2022-08-01T14:58:29;6.97;;;1.70;;
48995;SDS011;34806;53.882;10.656;2022-08-01T15:00:57;8.65;;;1.55;;
48995;SDS011;34806;53.882;10.656;2022-08-01T15:03:28;4.07;;;1.70;;
48995;SDS011;34806;53.882;10.656;2022-08-01T15:05:58;6.82;;;1.83;;
48995;SDS011;34806;53.882;10.656;2022-08-01T15:08:26;5.15;;;1.73;;
48995;SDS011;34806;53.882;10.656;2022-08-01T15:10:56;4.68;;;1.60;;
48995;SDS011;34806;53.882;10.656;2022-08-01T15:13:24;4.93;;;1.70;;
48995;SDS011;34806;53.882;10.656;2022-08-01T15:15:51;6.90;;;1.60;;
48995;SDS011;34806;53.882;10.656;2022-08-01T15:18:25;3.80;;;1.58;;
48995;SDS011;34806;53.882;10.656;2022-08-01T15:20:54;4.35;;;1.45;;
48995;SDS011;34806;53.882;10.656;2022-08-01T15:23:23;4.50;;;1.77;;
48995;SDS011;34806;53.882;10.656;2022-08-01T15:25:51;4.75;;;1.33;;
48995;SDS011;34806;53.882;10.656;2022-08-01T15:28:19;3.50;;;1.42;;
48995;SDS011;34806;53.882;10.656;2022-08-01T15:30:47;5.63;;;1.60;;
48995;SDS011;34806;53.882;10.656;2022-08-01T15:33:15;6.15;;;1.95;;
48995;SDS011;34806;53.882;10.656;2022-08-01T15:35:43;3.60;;;1.80;;
48995;SDS011;34806;53.882;10.656;2022-08-01T15:38:13;5.88;;;1.48;;
48995;SDS011;34806;53.882;10.656;2022-08-01T15:40:41;5.63;;;1.58;;
48995;SDS011;34806;53.882;10.656;2022-08-01T15:43:08;6.32;;;1.50;;
48995;SDS011;34806;53.882;10.656;2022-08-01T15:45:41;6.05;;;2.22;;
48995;SDS011;34806;53.882;10.656;2022-08-01T15:48:14;3.72;;;1.58;;
48995;SDS011;34806;53.882;10.656;2022-08-01T15:50:42;4.82;;;1.58;;
48995;SDS011;34806;53.882;10.656;2022-08-01T15:53:10;4.95;;;1.65;;
48995;SDS011;34806;53.882;10.656;2022-08-01T15:55:40;4.63;;;1.55;;
48995;SDS011;34806;53.882;10.656;2022-08-01T15:58:17;4.55;;;1.77;;
48995;SDS011;34806;53.882;10.656;2022-08-01T16:00:46;5.82;;;1.40;;
48995;SDS011;34806;53.882;10.656;2022-08-01T16:03:14;8.70;;;1.73;;
48995;SDS011;34806;53.882;10.656;2022-08-01T16:05:42;5.60;;;1.63;;
48995;SDS011;34806;53.882;10.656;2022-08-01T16:08:10;5.05;;;1.77;;
48995;SDS011;34806;53.882;10.656;2022-08-01T16:10:40;8.30;;;2.03;;
48995;SDS011;34806;53.882;10.656;2022-08-01T16:13:09;2.92;;;1.58;;
48995;SDS011;34806;53.882;10.656;2022-08-01T16:15:37;5.85;;;1.77;;
48995;SDS011;34806;53.882;10.656;2022-08-01T16:18:05;6.10;;;1.80;;
48995;SDS011;34806;53.882;10.656;2022-08-01T16:20:34;6.00;;;1.75;;
48995;SDS011;34806;53.882;10.656;2022-08-01T16:23:10;9.20;;;1.85;;
48995;SDS011;34806;53.882;10.656;2022-08-01T16:25:38;6.15;;;2.08;;
48995;SDS011;34806;53.882;10.656;2022-08-01T16:28:09;3.95;;;1.70;;
48995;SDS011;34806;53.882;10.656;2022-08-01T16:30:37;4.00;;;1.63;;
48995;SDS011;34806;53.882;10.656;2022-08-01T16:33:25;3.95;;;1.70;;
48995;SDS011;34806;53.882;10.656;2022-08-01T16:36:14;8.43;;;2.28;;
48995;SDS011;34806;53.882;10.656;2022-08-01T16:38:42;4.50;;;1.67;;
48995;SDS011;34806;53.882;10.656;2022-08-01T16:41:13;6.32;;;2.08;;
48995;SDS011;34806;53.882;10.656;2022-08-01T16:43:46;10.68;;;2.88;;
48995;SDS011;34806;53.882;10.656;2022-08-01T16:46:19;6.80;;;2.17;;
48995;SDS011;34806;53.882;10.656;2022-08-01T16:48:48;9.07;;;2.10;;
48995;SDS011;34806;53.882;10.656;2022-08-01T16:51:17;8.10;;;2.33;;
48995;SDS011;34806;53.882;10.656;2022-08-01T16:53:45;6.70;;;2.03;;
48995;SDS011;34806;53.882;10.656;2022-08-01T16:56:14;6.25;;;2.30;;
48995;SDS011;34806;53.882;10.656;2022-08-01T16:58:42;3.65;;;2.05;;
48995;SDS011;34806;53.882;10.656;2022-08-01T17:01:10;8.88;;;2.40;;
48995;SDS011;34806;53.882;10.656;2022-08-01T17:03:58;10.88;;;2.65;;
48995;SDS011;34806;53.882;10.656;2022-08-01T17:06:27;9.80;;;2.15;;
48995;SDS011;34806;53.882;10.656;2022-08-01T17:08:55;7.57;;;2.10;;
48995;SDS011;34806;53.882;10.656;2022-08-01T17:11:25;9.75;;;2.22;;
48995;SDS011;34806;53.882;10.656;2022-08-01T17:13:53;7.82;;;2.28;;
48995;SDS011;34806;53.882;10.656;2022-08-01T17:16:21;6.40;;;2.15;;
48995;SDS011;34806;53.882;10.656;2022-08-01T17:18:49;7.32;;;2.30;;
48995;SDS011;34806;53.882;10.656;2022-08-01T17:21:17;9.32;;;2.20;;
48995;SDS011;34806;53.882;10.656;2022-08-01T17:23:45;5.65;;;2.20;;
48995;SDS011;34806;53.882;10.656;2022-08-01T17:26:13;4.70;;;1.95;;
48995;SDS011;34806;53.882;10.656;2022-08-01T17:28:43;10.32;;;2.10;;
48995;SDS011;34806;53.882;10.656;2022-08-01T17:31:11;8.73;;;2.22;;
48995;SDS011;34806;53.882;10.656;2022-08-01T17:33:39;4.53;;;2.15;;
48995;SDS011;34806;53.882;10.656;2022-08-01T17:36:12;6.13;;;1.98;;
48995;SDS011;34806;53.882;10.656;2022-08-01T17:38:40;6.03;;;1.95;;
48995;SDS011;34806;53.882;10.656;2022-08-01T17:41:08;5.93;;;1.92;;
48995;SDS011;34806;53.882;10.656;2022-08-01T17:43:36;9.23;;;2.20;;
48995;SDS011;34806;53.882;10.656;2022-08-01T17:46:05;11.70;;;2.90;;
48995;SDS011;34806;53.882;10.656;2022-08-01T17:48:34;6.68;;;2.47;;
48995;SDS011;34806;53.882;10.656;2022-08-01T17:51:02;6.78;;;2.17;;
48995;SDS011;34806;53.882;10.656;2022-08-01T17:53:31;10.93;;;2.47;;
48995;SDS011;34806;53.882;10.656;2022-08-01T17:56:00;8.00;;;2.33;;
48995;SDS011;34806;53.882;10.656;2022-08-01T17:58:31;6.57;;;2.03;;
48995;SDS011;34806;53.882;10.656;2022-08-01T18:01:19;10.40;;;2.28;;
48995;SDS011;34806;53.882;10.656;2022-08-01T18:03:52;4.60;;;1.70;;
48995;SDS011;34806;53.882;10.656;2022-08-01T18:06:23;4.53;;;2.10;;
48995;SDS011;34806;53.882;10.656;2022-08-01T18:08:52;5.80;;;2.10;;
48995;SDS011;34806;53.882;10.656;2022-08-01T18:11:22;6.18;;;2.60;;
48995;SDS011;34806;53.882;10.656;2022-08-01T18:13:52;5.40;;;1.95;;
48995;SDS011;34806;53.882;10.656;2022-08-01T18:16:22;5.50;;;2.17;;
48995;SDS011;34806;53.882;10.656;2022-08-01T18:18:51;7.10;;;2.00;;
48995;SDS011;34806;53.882;10.656;2022-08-01T18:21:21;5.97;;;1.98;;
48995;SDS011;34806;53.882;10.656;2022-08-01T18:23:49;7.30;;;2.17;;
48995;SDS011;34806;53.882;10.656;2022-08-01T18:26:18;5.85;;;1.55;;
48995;SDS011;34806;53.882;10.656;2022-08-01T18:28:46;7.88;;;2.38;;
48995;SDS011;34806;53.882;10.656;2022-08-01T18:31:15;4.60;;;2.00;;
48995;SDS011;34806;53.882;10.656;2022-08-01T18:33:47;8.45;;;2.35;;
48995;SDS011;34806;53.882;10.656;2022-08-01T18:36:15;6.28;;;2.05;;
48995;SDS011;34806;53.882;10.656;2022-08-01T18:38:59;5.97;;;1.73;;
48995;SDS011;34806;53.882;10.656;2022-08-01T18:41:30;6.75;;;1.88;;
48995;SDS011;34806;53.882;10.656;2022-08-01T18:43:59;8.18;;;2.40;;
48995;SDS011;34806;53.882;10.656;2022-08-01T18:46:34;12.18;;;2.30;;
48995;SDS011;34806;53.882;10.656;2022-08-01T18:49:05;10.27;;;2.13;;
48995;SDS011;34806;53.882;10.656;2022-08-01T18:51:35;9.27;;;2.17;;
48995;SDS011;34806;53.882;10.656;2022-08-01T18:54:10;7.68;;;2.33;;
48995;SDS011;34806;53.882;10.656;2022-08-01T18:56:38;5.88;;;2.33;;
48995;SDS011;34806;53.882;10.656;2022-08-01T18:59:07;8.88;;;2.70;;
48995;SDS011;34806;53.882;10.656;2022-08-01T19:01:35;10.02;;;2.13;;
48995;SDS011;34806;53.882;10.656;2022-08-01T19:04:06;9.38;;;2.42;;
48995;SDS011;34806;53.882;10.656;2022-08-01T19:06:35;5.57;;;1.88;;
48995;SDS011;34806;53.882;10.656;2022-08-01T19:09:05;6.85;;;2.10;;
48995;SDS011;34806;53.882;10.656;2022-08-01T19:11:34;5.03;;;1.95;;
48995;SDS011;34806;53.882;10.656;2022-08-01T19:14:02;8.10;;;2.17;;
48995;SDS011;34806;53.882;10.656;2022-08-01T19:16:30;6.57;;;1.95;;
48995;SDS011;34806;53.882;10.656;2022-08-01T19:18:59;8.15;;;2.40;;
48995;SDS011;34806;53.882;10.656;2022-08-01T19:21:33;6.57;;;2.60;;
48995;SDS011;34806;53.882;10.656;2022-08-01T19:24:05;10.80;;;2.30;;
48995;SDS011;34806;53.882;10.656;2022-08-01T19:26:50;8.27;;;2.10;;
48995;SDS011;34806;53.882;10.656;2022-08-01T19:29:19;7.72;;;2.38;;
48995;SDS011;34806;53.882;10.656;2022-08-01T19:32:00;11.00;;;2.20;;
48995;SDS011;34806;53.882;10.656;2022-08-01T19:34:30;5.45;;;1.60;;
48995;SDS011;34806;53.882;10.656;2022-08-01T19:37:03;4.75;;;1.83;;
48995;SDS011;34806;53.882;10.656;2022-08-01T19:39:33;8.48;;;2.10;;
48995;SDS011;34806;53.882;10.656;2022-08-01T19:42:01;6.57;;;2.00;;
48995;SDS011;34806;53.882;10.656;2022-08-01T19:44:30;6.07;;;1.98;;
48995;SDS011;34806;53.882;10.656;2022-08-01T19:46:59;10.43;;;2.65;;
48995;SDS011;34806;53.882;10.656;2022-08-01T19:49:28;6.93;;;1.92;;
48995;SDS011;34806;53.882;10.656;2022-08-01T19:51:58;9.30;;;2.28;;
48995;SDS011;34806;53.882;10.656;2022-08-01T19:54:31;11.10;;;2.22;;
48995;SDS011;34806;53.882;10.656;2022-08-01T19:57:01;8.05;;;2.15;;
48995;SDS011;34806;53.882;10.656;2022-08-01T19:59:31;9.10;;;2.17;;
48995;SDS011;34806;53.882;10.656;2022-08-01T20:02:01;7.57;;;2.20;;
48995;SDS011;34806;53.882;10.656;2022-08-01T20:04:30;4.78;;;1.92;;
48995;SDS011;34806;53.882;10.656;2022-08-01T20:06:59;8.10;;;2.20;;
48995;SDS011;34806;53.882;10.656;2022-08-01T20:09:28;5.63;;;2.00;;
48995;SDS011;34806;53.882;10.656;2022-08-01T20:11:59;7.03;;;2.00;;
48995;SDS011;34806;53.882;10.656;2022-08-01T20:14:27;4.43;;;1.95;;
48995;SDS011;34806;53.882;10.656;2022-08-01T20:16:55;7.75;;;2.17;;
48995;SDS011;34806;53.882;10.656;2022-08-01T20:19:24;6.03;;;2.30;;
48995;SDS011;34806;53.882;10.656;2022-08-01T20:21:55;9.40;;;2.30;;
48995;SDS011;34806;53.882;10.656;2022-08-01T20:24:31;7.68;;;2.45;;
48995;SDS011;34806;53.882;10.656;2022-08-01T20:27:07;5.72;;;1.67;;
48995;SDS011;34806;53.882;10.656;2022-08-01T20:29:37;5.22;;;1.77;;
48995;SDS011;34806;53.882;10.656;2022-08-01T20:32:05;5.82;;;1.70;;
48995;SDS011;34806;53.882;10.656;2022-08-01T20:34:35;6.18;;;1.85;;
48995;SDS011;34806;53.882;10.656;2022-08-01T20:37:05;7.82;;;2.10;;
48995;SDS011;34806;53.882;10.656;2022-08-01T20:39:40;4.43;;;1.80;;
48995;SDS011;34806;53.882;10.656;2022-08-01T20:42:10;5.93;;;2.05;;
48995;SDS011;34806;53.882;10.656;2022-08-01T20:44:39;7.40;;;1.92;;
48995;SDS011;34806;53.882;10.656;2022-08-01T20:47:07;7.55;;;2.00;;
48995;SDS011;34806;53.882;10.656;2022-08-01T20:49:36;5.43;;;1.88;;
48995;SDS011;34806;53.882;10.656;2022-08-01T20:52:04;7.18;;;2.47;;
48995;SDS011;34806;53.882;10.656;2022-08-01T20:54:37;5.78;;;2.05;;
48995;SDS011;34806;53.882;10.656;2022-08-01T20:57:10;7.38;;;2.33;;
48995;SDS011;34806;53.882;10.656;2022-08-01T20:59:42;5.45;;;1.88;;
48995;SDS011;34806;53.882;10.656;2022-08-01T21:02:24;7.68;;;1.88;;
48995;SDS011;34806;53.882;10.656;2022-08-01T21:05:04;7.40;;;1.63;;
48995;SDS011;34806;53.882;10.656;2022-08-01T21:07:37;3.03;;;1.50;;
48995;SDS011;34806;53.882;10.656;2022-08-01T21:10:09;10.05;;;1.77;;
48995;SDS011;34806;53.882;10.656;2022-08-01T21:12:42;7.10;;;1.90;;
48995;SDS011;34806;53.882;10.656;2022-08-01T21:15:14;6.47;;;1.70;;
48995;SDS011;34806;53.882;10.656;2022-08-01T21:17:52;8.00;;;2.15;;
48995;SDS011;34806;53.882;10.656;2022-08-01T21:20:25;4.93;;;1.95;;
48995;SDS011;34806;53.882;10.656;2022-08-01T21:22:58;6.22;;;2.53;;
48995;SDS011;34806;53.882;10.656;2022-08-01T21:25:34;11.40;;;2.22;;
48995;SDS011;34806;53.882;10.656;2022-08-01T21:28:03;5.28;;;1.67;;
48995;SDS011;34806;53.882;10.656;2022-08-01T21:30:32;6.63;;;2.20;;
48995;SDS011;34806;53.882;10.656;2022-08-01T21:33:03;4.32;;;1.75;;
48995;SDS011;34806;53.882;10.656;2022-08-01T21:35:31;4.78;;;1.70;;
48995;SDS011;34806;53.882;10.656;2022-08-01T21:38:00;7.07;;;1.83;;
48995;SDS011;34806;53.882;10.656;2022-08-01T21:40:29;9.07;;;2.20;;
48995;SDS011;34806;53.882;10.656;2022-08-01T21:43:01;4.22;;;1.60;;
48995;SDS011;34806;53.882;10.656;2022-08-01T21:45:30;5.30;;;1.90;;
48995;SDS011;34806;53.882;10.656;2022-08-01T21:47:59;6.07;;;1.70;;
48995;SDS011;34806;53.882;10.656;2022-08-01T21:50:27;4.63;;;1.77;;
48995;SDS011;34806;53.882;10.656;2022-08-01T21:53:07;7.38;;;2.15;;
48995;SDS011;34806;53.882;10.656;2022-08-01T21:55:59;8.60;;;2.28;;
48995;SDS011;34806;53.882;10.656;2022-08-01T21:58:43;5.43;;;1.90;;
48995;SDS011;34806;53.882;10.656;2022-08-01T22:01:20;8.68;;;2.40;;
48995;SDS011;34806;53.882;10.656;2022-08-01T22:03:53;6.22;;;1.75;;
48995;SDS011;34806;53.882;10.656;2022-08-01T22:06:25;5.07;;;1.95;;
48995;SDS011;34806;53.882;10.656;2022-08-01T22:09:01;5.00;;;1.85;;
48995;SDS011;34806;53.882;10.656;2022-08-01T22:11:31;8.32;;;2.10;;
48995;SDS011;34806;53.882;10.656;2022-08-01T22:14:04;5.45;;;1.80;;
48995;SDS011;34806;53.882;10.656;2022-08-01T22:16:35;9.55;;;2.03;;
48995;SDS011;34806;53.882;10.656;2022-08-01T22:19:05;4.93;;;1.98;;
48995;SDS011;34806;53.882;10.656;2022-08-01T22:21:55;6.97;;;1.92;;
48995;SDS011;34806;53.882;10.656;2022-08-01T22:24:24;13.30;;;2.47;;
48995;SDS011;34806;53.882;10.656;2022-08-01T22:26:53;8.48;;;1.88;;
48995;SDS011;34806;53.882;10.656;2022-08-01T22:29:23;4.88;;;1.80;;
48995;SDS011;34806;53.882;10.656;2022-08-01T22:31:54;7.60;;;2.05;;
48995;SDS011;34806;53.882;10.656;2022-08-01T22:34:23;5.72;;;1.80;;
48995;SDS011;34806;53.882;10.656;2022-08-01T22:36:53;12.73;;;2.40;;
48995;SDS011;34806;53.882;10.656;2022-08-01T22:39:21;8.27;;;2.40;;
48995;SDS011;34806;53.882;10.656;2022-08-01T22:41:51;7.47;;;2.00;;
48995;SDS011;34806;53.882;10.656;2022-08-01T22:47:03;8.85;;;2.20;;
48995;SDS011;34806;53.882;10.656;2022-08-01T22:49:40;5.57;;;2.10;;
48995;SDS011;34806;53.882;10.656;2022-08-01T22:52:16;9.07;;;2.07;;
48995;SDS011;34806;53.882;10.656;2022-08-01T22:54:46;5.28;;;2.17;;
48995;SDS011;34806;53.882;10.656;2022-08-01T22:57:19;5.55;;;2.03;;
48995;SDS011;34806;53.882;10.656;2022-08-01T22:59:53;7.05;;;2.28;;
48995;SDS011;34806;53.882;10.656;2022-08-01T23:04:56;9.60;;;2.60;;
48995;SDS011;34806;53.882;10.656;2022-08-01T23:07:30;7.28;;;2.50;;
48995;SDS011;34806;53.882;10.656;2022-08-01T23:10:00;4.55;;;2.08;;
48995;SDS011;34806;53.882;10.656;2022-08-01T23:12:31;8.05;;;2.35;;
48995;SDS011;34806;53.882;10.656;2022-08-01T23:15:00;7.75;;;2.35;;
48995;SDS011;34806;53.882;10.656;2022-08-01T23:17:29;6.97;;;2.20;;
48995;SDS011;34806;53.882;10.656;2022-08-01T23:19:58;5.32;;;2.30;;
48995;SDS011;34806;53.882;10.656;2022-08-01T23:22:29;7.65;;;2.40;;
48995;SDS011;34806;53.882;10.656;2022-08-01T23:24:59;10.65;;;2.13;;
48995;SDS011;34806;53.882;10.656;2022-08-01T23:27:31;9.50;;;2.38;;
48995;SDS011;34806;53.882;10.656;2022-08-01T23:30:22;10.73;;;3.03;;
48995;SDS011;34806;53.882;10.656;2022-08-01T23:32:52;6.15;;;2.28;;
48995;SDS011;34806;53.882;10.656;2022-08-01T23:35:20;4.38;;;2.03;;
48995;SDS011;34806;53.882;10.656;2022-08-01T23:37:48;7.10;;;2.15;;
48995;SDS011;34806;53.882;10.656;2022-08-01T23:40:17;6.75;;;2.20;;
48995;SDS011;34806;53.882;10.656;2022-08-01T23:42:50;4.28;;;2.25;;
48995;SDS011;34806;53.882;10.656;2022-08-01T23:45:20;3.65;;;1.92;;
48995;SDS011;34806;53.882;10.656;2022-08-01T23:47:50;5.28;;;2.50;;
48995;SDS011;34806;53.882;10.656;2022-08-01T23:50:18;4.72;;;2.10;;
48995;SDS011;34806;53.882;10.656;2022-08-01T23:52:48;5.35;;;2.10;;
48995;SDS011;34806;53.882;10.656;2022-08-01T23:55:17;7.13;;;2.00;;
48995;SDS011;34806;53.882;10.656;2022-08-01T23:58:01;5.35;;;1.95;;
